WetterOnline ( https://www.wetteronline.de )

Wetter aktuell Görlitz

Aktuelles Wetter: Görlitz (240m)

6-stündlich | Neueste Meldungen
Ortszeit Temperatur Wetter
Di, 28.05. 8:00 16.9° C wolkig
Di, 28.05. 2:00 15.5° C bedeckt
Mo, 27.05. 20:00 18.7° C bewölkt
Mo, 27.05. 14:00 22.2° C Regen
Mo, 27.05. 8:00 18.8° C bedeckt
Mo, 27.05. 2:00 16.1° C bedeckt
So, 26.05. 20:00 19.4° C bedeckt
So, 26.05. 14:00 22.0° C wolkig
Ortszeit Temperatur Wetter
Di, 28.05. 8:00 16.9° C wolkig
Di, 28.05. 7:50 16.9° C wolkig
Di, 28.05. 7:40 16.8° C bedeckt
Di, 28.05. 7:30 16.5° C Sprühregen
Di, 28.05. 7:20 16.5° C Sprühregen
Di, 28.05. 7:10 16.4° C bedeckt
Di, 28.05. 7:00 16.3° C Regen
Di, 28.05. 6:30 15.6° C leichter Regen
Di, 28.05. 6:00 15.2° C Regen
Di, 28.05. 5:30 15.5° C bedeckt
Di, 28.05. 5:00 15.2° C bedeckt
Ortszeit Relative Feuchte Sichtweite
Di, 28.05. 8:00 87% 55 km
Di, 28.05. 2:00 90% 45 km
Mo, 27.05. 20:00 87% 45 km
Mo, 27.05. 14:00 62% 10 km
Mo, 27.05. 8:00 71% 45 km
Mo, 27.05. 2:00 83% 50 km
So, 26.05. 20:00 69% 65 km
So, 26.05. 14:00 64% 60 km
Ortszeit Relative Feuchte Sichtweite
Di, 28.05. 8:00 87% 55 km
Di, 28.05. 7:50 87% -
Di, 28.05. 7:40 87% -
Di, 28.05. 7:30 88% 35 km
Di, 28.05. 7:20 88% -
Di, 28.05. 7:10 88% -
Di, 28.05. 7:00 90% 30 km
Di, 28.05. 6:30 90% 29 km
Di, 28.05. 6:00 91% 15 km
Di, 28.05. 5:30 87% 45 km
Di, 28.05. 5:00 91% 35 km
Ortszeit Niederschlagsmenge Niederschlagsart
Di, 28.05. 8:00 0.3 l/m2 in 12 Std. Regen
Di, 28.05. 2:00 0.1 l/m2 in 6 Std. Sprühregen
Mo, 27.05. 20:00 5 l/m2 in 12 Std. Regen
Mo, 27.05. 14:00 0.2 l/m2 in 6 Std. Regen
Mo, 27.05. 8:00 0.1 l/m2 in 12 Std. -
Mo, 27.05. 2:00 0.1 l/m2 in 6 Std. Regen
So, 26.05. 20:00 0.1 l/m2 in 12 Std. Regen
So, 26.05. 14:00 0.0 l/m2 in 6 Std. -
Ortszeit Niederschlagsmenge Niederschlagsart
Di, 28.05. 8:00 <0.05 l/m2 in 1 Std. Regen
Di, 28.05. 7:50 keine Meldung -
Di, 28.05. 7:40 keine Meldung -
Di, 28.05. 7:30 <0.05 l/m2 in 30 Min -
Di, 28.05. 7:20 keine Meldung -
Di, 28.05. 7:10 keine Meldung -
Di, 28.05. 7:00 0.2 l/m2 in 1 Std. Regen
Di, 28.05. 6:30 0.2 l/m2 in 30 Min -
Di, 28.05. 6:00 0.1 l/m2 in 1 Std. Regen
Di, 28.05. 5:30 <0.05 l/m2 in 30 Min Schneeregen
Di, 28.05. 5:00 <0.05 l/m2 in 1 Std. Regen
Ortszeit Stärke Spitze Richtung
km/h Bft. km/h Grad Sektor
Di, 28.05. 8:00 15 3 28 280° W
Di, 28.05. 2:00 4 1 14 240° SW
Mo, 27.05. 20:00 7 2 40 150° SO
Mo, 27.05. 14:00 14 3 40 190° S
Mo, 27.05. 8:00 4 1 11 160° S
Mo, 27.05. 2:00 2 1 17 280° W
So, 26.05. 20:00 14 3 29 220° SW
So, 26.05. 14:00 7 2 28 60° NO
Ortszeit Stärke Spitze Richtung
km/h Bft. km/h Grad Sektor
Di, 28.05. 8:00 15 3 28 280° W
Di, 28.05. 7:50 15 3 - 280° W
Di, 28.05. 7:40 11 2 - 270° W
Di, 28.05. 7:30 11 2 18 250° W
Di, 28.05. 7:20 11 2 - 250° W
Di, 28.05. 7:10 9 2 - 250° W
Di, 28.05. 7:00 6 1 15 240° SW
Di, 28.05. 6:30 11 2 14 270° W
Di, 28.05. 6:00 7 2 14 280° W
Di, 28.05. 5:30 4 1 7 210° SW
Di, 28.05. 5:00 7 2 7 130° SO
Ortszeit Untergrenze Bedeckung Gattung
total tief tief mittel hoch
Di, 28.05. 8:00 510 m 8/8 1/8 - - -
Di, 28.05. 2:00 3300 m 8/8 8/8 - - -
Mo, 27.05. 20:00 1500 m 7/8 7/8 - - -
Mo, 27.05. 14:00 1140 m 7/8 6/8 - - -
Mo, 27.05. 8:00 3000 m 8/8 8/8 - - -
Mo, 27.05. 2:00 3000 m 8/8 8/8 - - -
So, 26.05. 20:00 3300 m 8/8 8/8 - - -
So, 26.05. 14:00 2700 m 7/8 2/8 - - -
Ortszeit Bedeckungsgrad in Achtel und Wolkenuntergrenze
Di, 28.05. 8:00 1(510m) 8(4200m) 8(6600m)
Di, 28.05. 7:50 1(510m) 8(4200m) 8(6600m)
Di, 28.05. 7:40 8
Di, 28.05. 7:30 1(1800m) 8(3000m) 8(4200m)
Di, 28.05. 7:20 1(1800m) 8(3000m) 8(4200m)
Di, 28.05. 7:10 8
Di, 28.05. 7:00 1(1500m) 8(3000m)
Di, 28.05. 6:30 6(2100m) 8(2400m)
Di, 28.05. 6:00 3(1800m) 7(2400m)
Di, 28.05. 5:30 8(2100m) 8(2700m)
Di, 28.05. 5:00 2(2100m) 8(2700m)
Ortszeit Luftdruck NN (hPa) Tendenz (hPa in 3 Std.)
Di, 28.05. 8:00 1015 + 1,2
Di, 28.05. 2:00 1015 - 0,7
Mo, 27.05. 20:00 1015 - 0,1
Mo, 27.05. 14:00 1017 - 1,3
Mo, 27.05. 8:00 1019 + 0,5
Mo, 27.05. 2:00 1019 - 0,4
So, 26.05. 20:00 1019 + 0,8
So, 26.05. 14:00 1019 + 0,1
Ortszeit Luftdruck NN (hPa) Tendenz (hPa in 3 Std.)
Di, 28.05. 8:00 1015 + 1,2
Di, 28.05. 7:50 1015 keine Meldung
Di, 28.05. 7:40 1015 keine Meldung
Di, 28.05. 7:30 1015 + 0,7
Di, 28.05. 7:20 1015 keine Meldung
Di, 28.05. 7:10 1015 keine Meldung
Di, 28.05. 7:00 1015 + 0,5
Di, 28.05. 6:30 1015 0,0
Di, 28.05. 6:00 1015 - 0,1
Di, 28.05. 5:30 1014 - 0,4
Di, 28.05. 5:00 1014 - 0,8
Ortszeit Schneehöhe (cm)
Di, 28.05. 8:00 0
Di, 28.05. 2:00 0
Mo, 27.05. 20:00 0
Mo, 27.05. 14:00 0
Mo, 27.05. 8:00 0
Mo, 27.05. 2:00 0
So, 26.05. 20:00 0
So, 26.05. 14:00 0
Ortszeit Schneehöhe (cm)
Di, 28.05. 8:00 0
Di, 28.05. 7:50 0
Di, 28.05. 7:40 -
Di, 28.05. 7:30 0
Di, 28.05. 7:20 0
Di, 28.05. 7:10 -
Di, 28.05. 7:00 0
Di, 28.05. 6:30 0
Di, 28.05. 6:00 0
Di, 28.05. 5:30 0
Di, 28.05. 5:00 0
Link zu dieser Seite / Seite empfehlen

Das Wetter in ...